createdAt,value
2023-02-11T00:02:11.078Z,46.47
2023-02-11T00:05:15.424Z,47.35
2023-02-11T00:08:19.623Z,45.63
2023-02-11T00:11:31.343Z,43.45
2023-02-11T00:14:35.338Z,44.88
2023-02-11T00:17:39.881Z,45.33
2023-02-11T00:20:44.313Z,44.53
2023-02-11T00:23:48.270Z,44.75
2023-02-11T00:26:52.494Z,46.78
2023-02-11T00:29:56.832Z,42.90
2023-02-11T00:33:01.121Z,40.35
2023-02-11T00:36:11.267Z,43.78
2023-02-11T00:39:15.533Z,44.58
2023-02-11T00:42:19.323Z,46.75
2023-02-11T00:45:23.679Z,44.28
2023-02-11T00:48:27.748Z,42.22
2023-02-11T00:51:31.897Z,47.75
2023-02-11T00:54:36.164Z,48.70
2023-02-11T00:57:40.227Z,47.65
2023-02-11T01:00:44.606Z,44.75
2023-02-11T01:03:48.620Z,45.45
2023-02-11T01:06:53.360Z,45.33
2023-02-11T01:09:57.457Z,41.65
2023-02-11T01:13:01.797Z,47.28
2023-02-11T01:16:10.504Z,42.28
2023-02-11T01:19:14.788Z,41.47
2023-02-11T01:22:19.406Z,43.13
2023-02-11T01:25:23.941Z,43.33
2023-02-11T01:28:30.392Z,43.95
2023-02-11T01:31:35.017Z,42.20
2023-02-11T01:34:38.936Z,37.90
2023-02-11T01:37:43.091Z,41.45
2023-02-11T01:41:00.982Z,42.22
2023-02-11T01:44:33.421Z,40.72
2023-02-11T01:47:37.573Z,42.13
2023-02-11T01:50:42.996Z,40.33
2023-02-11T01:54:08.261Z,41.70
2023-02-11T01:57:22.181Z,42.13
2023-02-11T02:00:34.248Z,43.50
2023-02-11T02:03:41.812Z,41.60
2023-02-11T02:06:54.810Z,39.00
2023-02-11T02:10:05.176Z,42.10
2023-02-11T02:13:09.700Z,41.40
2023-02-11T02:16:16.733Z,41.95
2023-02-11T02:19:36.243Z,38.22
2023-02-11T02:22:52.270Z,39.17
2023-02-11T02:26:14.649Z,43.15
2023-02-11T02:29:24.791Z,38.92
2023-02-11T02:33:16.740Z,39.42
2023-02-11T02:36:44.247Z,40.67
2023-02-11T02:39:50.340Z,39.38
2023-02-11T02:42:55.506Z,39.67
2023-02-11T02:46:24.886Z,41.55
2023-02-11T02:49:29.260Z,41.65
2023-02-11T02:52:39.317Z,41.20
2023-02-11T02:56:11.485Z,40.53
2023-02-11T02:59:30.971Z,44.95
2023-02-11T03:03:21.351Z,42.05
2023-02-11T03:06:28.064Z,42.95
2023-02-11T03:09:54.798Z,44.22
2023-02-11T03:13:00.226Z,38.42
2023-02-11T03:16:09.719Z,44.00
2023-02-11T03:19:23.577Z,39.30
2023-02-11T03:22:35.323Z,40.45
2023-02-11T03:25:48.994Z,41.50
2023-02-11T03:29:06.924Z,42.90
2023-02-11T03:32:17.455Z,44.72
2023-02-11T03:35:39.532Z,40.75
2023-02-11T03:38:51.824Z,43.53
2023-02-11T03:41:56.488Z,44.78
2023-02-11T03:45:06.585Z,47.97
2023-02-11T03:48:39.624Z,42.25
2023-02-11T03:51:44.131Z,44.33
2023-02-11T03:54:53.639Z,41.92
2023-02-11T03:57:57.924Z,44.75
2023-02-11T04:01:02.728Z,44.28
2023-02-11T04:04:06.801Z,46.10
2023-02-11T04:07:12.242Z,43.40
2023-02-11T04:10:16.791Z,42.80
2023-02-11T04:13:22.991Z,43.92
2023-02-11T04:16:27.026Z,45.25
2023-02-11T04:19:30.937Z,45.03
2023-02-11T04:22:35.233Z,44.13
2023-02-11T04:25:39.812Z,46.30
2023-02-11T04:28:43.777Z,42.22
2023-02-11T04:31:48.372Z,49.30
2023-02-11T04:34:52.195Z,42.10
2023-02-11T04:37:56.415Z,45.47
2023-02-11T04:41:00.939Z,47.25
2023-02-11T04:44:05.254Z,43.33
2023-02-11T04:47:09.560Z,47.55
2023-02-11T04:50:13.687Z,43.15
2023-02-11T04:53:17.625Z,44.58
2023-02-11T04:56:21.585Z,42.35
2023-02-11T04:59:25.846Z,42.20
2023-02-11T05:02:30.141Z,45.22
2023-02-11T05:05:34.384Z,44.50
2023-02-11T05:08:39.013Z,43.05
2023-02-11T05:11:43.564Z,43.28
2023-02-11T05:14:47.640Z,43.92
2023-02-11T05:17:51.850Z,44.13
2023-02-11T05:20:55.912Z,46.85
2023-02-11T05:24:00.452Z,44.58
2023-02-11T05:27:04.599Z,43.25
2023-02-11T05:30:09.632Z,42.88
2023-02-11T05:33:13.614Z,47.03
2023-02-11T05:36:17.861Z,48.22
2023-02-11T05:39:22.008Z,44.83
2023-02-11T05:42:26.335Z,48.70
2023-02-11T05:45:31.024Z,46.00
2023-02-11T05:48:35.667Z,48.22
2023-02-11T05:51:39.580Z,48.10
2023-02-11T05:54:43.676Z,54.90
2023-02-11T05:57:47.872Z,50.42
2023-02-11T06:00:52.029Z,48.75
2023-02-11T06:03:55.903Z,48.35
2023-02-11T06:07:00.300Z,48.00
2023-02-11T06:10:04.681Z,48.95
2023-02-11T06:13:08.783Z,49.67
2023-02-11T06:16:13.357Z,51.97
2023-02-11T06:19:17.327Z,51.65
2023-02-11T06:22:21.265Z,51.47
2023-02-11T06:25:25.364Z,52.55
2023-02-11T06:28:31.386Z,50.88
2023-02-11T06:31:38.048Z,54.75
2023-02-11T06:34:41.816Z,52.30
2023-02-11T06:37:46.775Z,54.03
2023-02-11T06:40:51.019Z,49.03
2023-02-11T06:43:55.082Z,54.33
2023-02-11T06:46:59.206Z,51.92
2023-02-11T06:50:03.709Z,50.70
2023-02-11T06:53:07.974Z,52.83
2023-02-11T06:56:17.851Z,48.45
2023-02-11T06:59:22.072Z,54.75
2023-02-11T07:02:26.425Z,51.90
2023-02-11T07:05:31.006Z,51.45
2023-02-11T07:08:36.898Z,53.80
2023-02-11T07:11:41.281Z,52.95
2023-02-11T07:14:45.427Z,53.97
2023-02-11T07:17:49.586Z,52.22
2023-02-11T07:20:53.953Z,57.17
2023-02-11T07:23:58.055Z,55.53
2023-02-11T07:27:02.243Z,50.53
2023-02-11T07:30:07.499Z,54.35
2023-02-11T07:33:11.574Z,52.63
2023-02-11T07:36:16.551Z,54.03
2023-02-11T07:39:21.878Z,52.05
2023-02-11T07:42:25.962Z,50.55
2023-02-11T07:45:30.032Z,55.22
2023-02-11T07:48:34.791Z,49.28
2023-02-11T07:51:39.197Z,52.58
2023-02-11T07:54:43.483Z,50.55
2023-02-11T07:57:47.298Z,52.10
2023-02-11T08:00:51.212Z,49.65
2023-02-11T08:03:57.416Z,53.65
2023-02-11T08:07:01.263Z,52.55
2023-02-11T08:10:05.376Z,51.17
2023-02-11T08:13:09.429Z,49.05
2023-02-11T08:16:31.002Z,54.00
2023-02-11T08:19:35.381Z,49.90
2023-02-11T08:22:39.758Z,49.80
2023-02-11T08:25:44.062Z,51.63
2023-02-11T08:28:49.611Z,48.17
2023-02-11T08:31:53.599Z,52.70
2023-02-11T08:34:57.393Z,51.92
2023-02-11T08:38:01.566Z,49.65
2023-02-11T08:41:06.422Z,51.05
2023-02-11T08:44:10.996Z,51.90
2023-02-11T08:47:14.860Z,45.20
2023-02-11T08:50:18.781Z,46.15
2023-02-11T08:53:22.921Z,53.13
2023-02-11T08:56:28.131Z,47.40
2023-02-11T08:59:32.411Z,49.83
2023-02-11T09:02:36.570Z,49.00
2023-02-11T09:05:45.739Z,53.50
2023-02-11T09:08:52.645Z,44.95
2023-02-11T09:11:57.330Z,50.88
2023-02-11T09:15:01.523Z,45.15
2023-02-11T09:18:05.820Z,49.53
2023-02-11T09:21:10.109Z,50.70
2023-02-11T09:24:14.528Z,49.97
2023-02-11T09:27:18.639Z,49.20
2023-02-11T09:30:22.827Z,46.53
2023-02-11T09:33:27.168Z,49.55
2023-02-11T09:36:35.308Z,48.03
2023-02-11T09:39:39.518Z,50.55
2023-02-11T09:42:48.172Z,48.30
2023-02-11T09:45:55.824Z,49.55
2023-02-11T09:49:00.363Z,49.88
2023-02-11T09:52:32.259Z,49.55
2023-02-11T09:55:45.484Z,43.90
2023-02-11T09:58:49.313Z,48.00
2023-02-11T10:01:59.232Z,49.33
2023-02-11T10:05:15.350Z,45.47
2023-02-11T10:08:47.539Z,43.53
2023-02-11T10:12:15.610Z,44.38
2023-02-11T10:15:38.868Z,46.20
2023-02-11T10:18:48.784Z,51.08
2023-02-11T10:21:58.857Z,42.50
2023-02-11T10:25:18.810Z,41.95
2023-02-11T10:28:36.045Z,42.03
2023-02-11T10:31:44.608Z,45.75
2023-02-11T10:34:48.755Z,47.95
2023-02-11T10:37:53.889Z,42.53
2023-02-11T10:40:57.918Z,42.67
2023-02-11T10:44:01.949Z,44.83
2023-02-11T10:47:28.816Z,43.90
2023-02-11T10:50:35.135Z,41.83
2023-02-11T10:53:39.624Z,43.90
2023-02-11T10:56:52.857Z,43.28
2023-02-11T11:00:00.509Z,41.17
2023-02-11T11:03:16.921Z,42.83
2023-02-11T11:06:34.863Z,43.03
2023-02-11T11:09:46.858Z,43.33
2023-02-11T11:12:51.295Z,41.27
2023-02-11T11:16:12.906Z,43.13
2023-02-11T11:19:22.653Z,45.42
2023-02-11T11:22:26.523Z,39.22
2023-02-11T11:25:30.713Z,43.75
2023-02-11T11:29:08.304Z,44.75
2023-02-11T11:32:20.595Z,40.25
2023-02-11T11:35:30.867Z,43.88
2023-02-11T11:38:37.629Z,42.10
2023-02-11T11:41:51.612Z,41.75
2023-02-11T11:45:04.601Z,43.00
2023-02-11T11:48:42.739Z,44.60
2023-02-11T11:51:57.905Z,40.97
2023-02-11T11:55:26.964Z,41.03
2023-02-11T11:58:32.108Z,47.90
2023-02-11T12:02:00.658Z,41.95
2023-02-11T12:05:17.213Z,42.58
2023-02-11T12:08:37.802Z,39.75
2023-02-11T12:12:02.433Z,40.80
2023-02-11T12:15:22.906Z,38.05
2023-02-11T12:18:47.541Z,42.25
2023-02-11T12:22:19.666Z,36.55
2023-02-11T12:25:55.678Z,39.90
2023-02-11T12:29:28.543Z,41.22
2023-02-11T12:32:43.602Z,41.83
2023-02-11T12:35:47.589Z,38.33
2023-02-11T12:38:51.409Z,40.42
2023-02-11T12:42:52.149Z,39.30
2023-02-11T12:46:11.793Z,38.75
2023-02-11T12:49:45.604Z,40.40
2023-02-11T12:56:38.774Z,40.88
2023-02-11T12:59:49.970Z,37.88
2023-02-11T13:03:02.572Z,38.40
2023-02-11T13:06:14.648Z,41.38
2023-02-11T13:09:26.601Z,39.60
2023-02-11T13:12:51.540Z,39.58
2023-02-11T13:16:05.597Z,39.45
2023-02-11T13:19:12.832Z,41.38
2023-02-11T13:22:27.407Z,38.22
2023-02-11T13:25:40.694Z,39.55
2023-02-11T13:28:48.640Z,37.60
2023-02-11T13:31:58.438Z,40.20
2023-02-11T13:35:02.685Z,40.28
2023-02-11T13:38:19.360Z,37.58
2023-02-11T13:41:34.388Z,40.72
2023-02-11T13:44:38.801Z,41.92
2023-02-11T13:47:42.975Z,43.42
2023-02-11T13:50:49.702Z,39.20
2023-02-11T13:53:56.486Z,38.15
2023-02-11T13:57:22.130Z,38.70
2023-02-11T14:00:35.317Z,39.05
2023-02-11T14:04:14.585Z,39.72
2023-02-11T14:07:48.950Z,37.60
2023-02-11T14:10:59.065Z,41.58
2023-02-11T14:14:05.064Z,40.40
2023-02-11T14:17:09.495Z,39.67
2023-02-11T14:20:38.139Z,48.28
2023-02-11T14:23:42.498Z,37.83
2023-02-11T14:26:56.358Z,38.53
2023-02-11T14:30:28.728Z,37.15
2023-02-11T14:33:58.728Z,38.42
2023-02-11T14:37:16.522Z,37.78
2023-02-11T14:40:29.744Z,41.15
2023-02-11T14:43:47.899Z,38.53
2023-02-11T14:46:53.680Z,41.17
2023-02-11T14:49:57.568Z,39.92
2023-02-11T14:53:03.314Z,36.72
2023-02-11T14:56:21.203Z,36.53
2023-02-11T14:59:25.220Z,40.40
2023-02-11T15:02:35.617Z,37.40
2023-02-11T15:05:39.566Z,40.13
2023-02-11T15:08:48.294Z,37.13
2023-02-11T15:11:53.209Z,40.90
2023-02-11T15:14:59.881Z,38.67
2023-02-11T15:18:05.127Z,38.10
2023-02-11T15:21:09.973Z,36.47
2023-02-11T15:24:25.202Z,37.33
2023-02-11T15:27:41.488Z,38.97
2023-02-11T15:30:45.515Z,35.60
2023-02-11T15:33:50.766Z,37.25
2023-02-11T15:36:54.926Z,35.13
2023-02-11T15:40:12.419Z,36.35
2023-02-11T15:43:16.238Z,34.10
2023-02-11T15:46:23.185Z,37.50
2023-02-11T15:49:28.243Z,34.28
2023-02-11T15:52:33.384Z,33.30
2023-02-11T15:55:41.156Z,36.88
2023-02-11T15:58:47.762Z,36.75
2023-02-11T16:01:54.279Z,33.17
2023-02-11T16:05:09.585Z,33.92
2023-02-11T16:08:29.941Z,32.08
2023-02-11T16:11:38.405Z,33.90
2023-02-11T16:14:42.653Z,31.20
2023-02-11T16:17:46.936Z,33.38
2023-02-11T16:20:51.777Z,33.13
2023-02-11T16:23:57.908Z,31.98
2023-02-11T16:27:23.969Z,29.55
2023-02-11T16:30:33.775Z,30.33
2023-02-11T16:33:38.131Z,31.95
2023-02-11T16:36:42.273Z,33.00
2023-02-11T16:39:47.150Z,31.65
2023-02-11T16:42:53.323Z,34.38
2023-02-11T16:45:58.410Z,32.97
2023-02-11T16:49:17.518Z,32.88
2023-02-11T16:52:22.164Z,31.52
2023-02-11T16:55:26.301Z,31.10
2023-02-11T16:58:30.738Z,31.42
2023-02-11T17:01:36.842Z,28.65
2023-02-11T17:04:41.315Z,32.92
2023-02-11T17:07:46.843Z,29.23
2023-02-11T17:10:51.243Z,28.85
2023-02-11T17:13:55.558Z,32.03
2023-02-11T17:17:00.130Z,34.40
2023-02-11T17:20:06.352Z,30.85
2023-02-11T17:23:10.510Z,31.95
2023-02-11T17:26:14.520Z,33.72
2023-02-11T17:29:21.806Z,30.00
2023-02-11T17:32:25.894Z,30.98
2023-02-11T17:35:30.158Z,33.08
2023-02-11T17:38:35.911Z,33.05
2023-02-11T17:41:40.688Z,30.17
2023-02-11T17:44:45.712Z,37.22
2023-02-11T17:47:49.975Z,39.03
2023-02-11T17:50:54.112Z,43.15
2023-02-11T17:54:01.207Z,44.03
2023-02-11T17:57:05.391Z,43.72
2023-02-11T18:00:10.335Z,42.03
2023-02-11T18:03:14.409Z,47.30
2023-02-11T18:06:19.361Z,42.67
2023-02-11T18:09:25.298Z,43.92
2023-02-11T18:12:29.515Z,51.80
2023-02-11T18:15:34.192Z,45.25
2023-02-11T18:18:38.200Z,44.72
2023-02-11T18:21:42.448Z,47.38
2023-02-11T18:24:52.287Z,47.38
2023-02-11T18:27:56.341Z,48.45
2023-02-11T18:31:00.773Z,50.78
2023-02-11T18:34:07.476Z,53.40
2023-02-11T18:37:13.327Z,62.00
2023-02-11T18:40:17.514Z,57.53
2023-02-11T18:43:21.619Z,57.55
2023-02-11T18:46:25.879Z,60.88
2023-02-11T18:49:30.230Z,58.60
2023-02-11T18:52:38.096Z,55.70
2023-02-11T18:55:43.977Z,61.72
2023-02-11T18:58:49.030Z,61.88
2023-02-11T19:01:53.209Z,64.40
2023-02-11T19:04:57.426Z,59.63
2023-02-11T19:08:01.501Z,59.55
2023-02-11T19:11:05.744Z,56.00
2023-02-11T19:14:10.453Z,61.95
2023-02-11T19:17:14.531Z,60.92
2023-02-11T19:20:18.969Z,59.40
2023-02-11T19:23:22.972Z,56.75
2023-02-11T19:26:28.596Z,57.97
2023-02-11T19:29:34.951Z,61.13
2023-02-11T19:32:39.521Z,58.92
2023-02-11T19:35:43.954Z,61.20
2023-02-11T19:38:48.264Z,62.47
2023-02-11T19:41:52.686Z,58.97
2023-02-11T19:44:57.295Z,58.80
2023-02-11T19:48:01.364Z,67.53
2023-02-11T19:51:13.013Z,62.55
2023-02-11T19:54:17.803Z,61.63
2023-02-11T19:57:22.170Z,62.03
2023-02-11T20:00:26.550Z,64.40
2023-02-11T20:03:30.852Z,67.32
2023-02-11T20:06:35.744Z,60.28
2023-02-11T20:09:41.056Z,65.72
2023-02-11T20:12:45.676Z,64.05
2023-02-11T20:15:50.255Z,64.88
2023-02-11T20:18:54.982Z,61.47
2023-02-11T20:21:59.037Z,71.68
2023-02-11T20:25:03.337Z,58.58
2023-02-11T20:28:07.348Z,64.50
2023-02-11T20:31:12.464Z,66.50
2023-02-11T20:34:17.624Z,62.78
2023-02-11T20:37:21.825Z,63.42
2023-02-11T20:40:26.106Z,66.82
2023-02-11T20:43:31.053Z,64.10
2023-02-11T20:46:38.096Z,67.15
2023-02-11T20:49:42.876Z,66.72
2023-02-11T20:52:48.291Z,68.35
2023-02-11T20:55:52.623Z,67.68
2023-02-11T20:58:58.427Z,66.82
2023-02-11T21:02:02.725Z,69.00
2023-02-11T21:05:07.405Z,62.33
2023-02-11T21:08:11.766Z,66.95
2023-02-11T21:11:16.379Z,65.63
2023-02-11T21:14:22.260Z,64.10
2023-02-11T21:17:27.482Z,74.05
2023-02-11T21:20:31.724Z,65.78
2023-02-11T21:23:35.947Z,68.22
2023-02-11T21:26:40.194Z,68.65
2023-02-11T21:29:53.859Z,67.03
2023-02-11T21:32:59.566Z,66.13
2023-02-11T21:36:04.614Z,72.22
2023-02-11T21:39:08.967Z,69.22
2023-02-11T21:42:12.666Z,71.10
2023-02-11T21:45:17.282Z,70.70
2023-02-11T21:48:21.362Z,69.45
2023-02-11T21:51:26.468Z,68.85
2023-02-11T21:54:32.034Z,73.88
2023-02-11T21:57:36.481Z,70.35
2023-02-11T22:00:40.679Z,68.88
2023-02-11T22:03:45.993Z,66.55
2023-02-11T22:06:50.157Z,66.57
2023-02-11T22:09:55.640Z,73.55
2023-02-11T22:12:59.639Z,69.22
2023-02-11T22:16:07.201Z,68.60
2023-02-11T22:19:11.683Z,69.68
2023-02-11T22:22:18.237Z,67.78
2023-02-11T22:25:22.126Z,69.18
2023-02-11T22:28:26.591Z,69.22
2023-02-11T22:31:33.289Z,72.38
2023-02-11T22:34:37.689Z,69.15
2023-02-11T22:37:41.741Z,70.35
2023-02-11T22:40:45.368Z,72.40
2023-02-11T22:43:50.161Z,74.28
2023-02-11T22:46:54.746Z,68.68
2023-02-11T22:49:59.174Z,67.95
2023-02-11T22:53:03.393Z,73.55
2023-02-11T22:56:15.389Z,74.32
2023-02-11T22:59:20.425Z,73.10
2023-02-11T23:02:24.560Z,70.10
2023-02-11T23:05:28.858Z,67.00
2023-02-11T23:08:33.663Z,71.82
2023-02-11T23:11:38.221Z,71.72
2023-02-11T23:14:42.712Z,70.15
2023-02-11T23:17:46.864Z,67.82
2023-02-11T23:20:50.998Z,71.40
2023-02-11T23:23:57.066Z,68.00
2023-02-11T23:27:00.949Z,65.45
2023-02-11T23:30:05.777Z,69.03
2023-02-11T23:33:09.714Z,67.50
2023-02-11T23:36:15.106Z,67.88
2023-02-11T23:39:19.096Z,62.63
2023-02-11T23:42:23.512Z,63.38
2023-02-11T23:45:27.841Z,68.32
2023-02-11T23:48:32.146Z,68.60
2023-02-11T23:51:36.405Z,61.30
2023-02-11T23:54:40.580Z,60.55
2023-02-11T23:57:44.760Z,59.70
